Time;durP1;ratioP1;P1;durP2;ratioP2;P2;SDS_P1;SDS_P2;PMS_P1;PMS_P2;Temp;Humidity;BMP_temperature;BMP_pressure;BME280_temperature;BME280_humidity;BME280_pressure;Samples;Min_cycle;Max_cycle;Signal;HPM_P1;HPM_P2
2023/06/16 00:01:39;;;;;;;5.43;3.30;;;25.60;65.80;;;;;;5013794;28;20431;-66
2023/06/16 00:04:05;;;;;;;5.03;3.30;;;25.80;66.10;;;;;;5015217;28;20052;-66
2023/06/16 00:06:31;;;;;;;5.30;3.30;;;25.90;66.10;;;;;;5011127;28;20462;-69
2023/06/16 00:08:57;;;;;;;5.07;3.33;;;25.40;65.80;;;;;;5014155;28;20081;-67
2023/06/16 00:11:25;;;;;;;6.75;3.80;;;25.80;66.30;;;;;;5014560;28;20128;-69
2023/06/16 00:13:51;;;;;;;5.55;3.55;;;25.70;66.30;;;;;;5014968;28;20132;-70
2023/06/16 00:16:19;;;;;;;5.57;3.70;;;25.90;66.20;;;;;;5014653;28;20121;-70
2023/06/16 00:18:46;;;;;;;6.50;3.80;;;25.60;65.30;;;;;;4997822;28;20061;-63
2023/06/16 00:21:19;;;;;;;5.30;3.45;;;25.90;66.50;;;;;;4997177;28;20042;-64
2023/06/16 00:23:48;;;;;;;6.60;3.90;;;25.80;65.50;;;;;;5015197;28;20053;-62
2023/06/16 00:26:14;;;;;;;5.20;3.30;;;25.80;66.30;;;;;;5014969;28;20103;-60
2023/06/16 00:28:40;;;;;;;6.05;3.75;;;25.70;66.10;;;;;;5015021;28;20046;-61
2023/06/16 00:31:06;;;;;;;5.50;3.78;;;25.70;66.20;;;;;;5001968;28;20467;-64
2023/06/16 00:33:32;;;;;;;6.22;3.60;;;25.80;66.20;;;;;;4995114;28;20114;-60
2023/06/16 00:35:58;;;;;;;7.25;4.15;;;25.80;66.20;;;;;;5005751;28;20099;-62
2023/06/16 00:38:23;;;;;;;5.32;3.92;;;25.70;66.20;;;;;;5014065;28;20050;-61
2023/06/16 00:40:49;;;;;;;5.63;3.72;;;25.80;66.30;;;;;;5008764;28;20045;-60
2023/06/16 00:43:15;;;;;;;5.65;3.60;;;25.70;66.20;;;;;;5012227;28;20061;-61
2023/06/16 00:45:41;;;;;;;7.25;3.95;;;25.60;66.20;;;;;;4998354;28;20420;-63
2023/06/16 00:48:07;;;;;;;6.00;3.50;;;25.70;66.20;;;;;;5012594;28;20050;-62
2023/06/16 00:50:32;;;;;;;5.85;3.65;;;25.60;69.90;;;;;;5005141;28;20045;-62
2023/06/16 00:52:58;;;;;;;5.30;3.50;;;25.70;66.40;;;;;;5004796;28;20530;-61
2023/06/16 00:55:24;;;;;;;5.82;3.67;;;25.70;66.50;;;;;;4999855;28;20121;-61
2023/06/16 00:57:50;;;;;;;5.10;3.53;;;25.70;66.60;;;;;;4994103;28;20457;-61
2023/06/16 01:00:17;;;;;;;7.03;3.95;;;25.80;66.60;;;;;;4993279;28;20052;-69
2023/06/16 01:02:44;;;;;;;6.85;3.85;;;25.80;66.50;;;;;;5009784;28;20116;-70
2023/06/16 01:05:10;;;;;;;5.25;3.72;;;25.30;66.50;;;;;;5002373;28;20124;-61
2023/06/16 01:08:01;;;;;;;5.47;3.28;;;25.70;66.60;;;;;;4997084;28;20475;-62
2023/06/16 01:10:53;;;;;;;6.13;4.00;;;25.50;65.50;;;;;;4995268;28;20288;-62
2023/06/16 01:13:32;;;;;;;6.43;4.10;;;25.60;65.90;;;;;;5008622;28;20035;-64
2023/06/16 01:15:59;;;;;;;5.32;3.70;;;25.60;65.60;;;;;;5008758;28;20034;-60
2023/06/16 01:18:25;;;;;;;6.57;3.80;;;25.40;66.70;;;;;;4993760;28;20050;-62
2023/06/16 01:20:53;;;;;;;5.90;4.10;;;25.50;66.70;;;;;;5003517;28;20467;-61
2023/06/16 01:23:39;;;;;;;5.10;3.70;;;25.70;67.00;;;;;;4981988;28;20061;-66
2023/06/16 01:26:05;;;;;;;5.65;3.63;;;25.50;67.30;;;;;;5007571;28;20403;-60
2023/06/16 01:28:32;;;;;;;6.50;3.90;;;25.40;67.00;;;;;;4995768;28;20046;-67
2023/06/16 01:31:00;;;;;;;5.85;3.72;;;25.60;66.80;;;;;;5009867;28;20404;-60
2023/06/16 01:33:26;;;;;;;7.13;4.03;;;25.40;67.10;;;;;;4993556;28;20046;-61
2023/06/16 01:35:52;;;;;;;6.45;3.97;;;25.40;67.00;;;;;;4992982;28;20461;-60
2023/06/16 01:38:18;;;;;;;5.45;3.40;;;25.50;67.10;;;;;;4998694;28;20502;-60
2023/06/16 01:40:45;;;;;;;6.28;3.92;;;25.50;66.90;;;;;;5000766;28;20050;-65
2023/06/16 01:43:11;;;;;;;5.85;3.63;;;25.60;65.80;;;;;;5001274;28;20310;-61
2023/06/16 01:45:37;;;;;;;5.88;3.50;;;25.70;66.90;;;;;;5009570;28;20404;-62
2023/06/16 01:48:03;;;;;;;5.50;3.60;;;25.40;66.70;;;;;;5013402;28;20053;-61
2023/06/16 01:50:29;;;;;;;7.07;3.78;;;25.50;67.00;;;;;;5013798;28;20045;-65
2023/06/16 01:52:55;;;;;;;4.95;3.17;;;25.60;67.80;;;;;;5007542;28;20129;-62
2023/06/16 01:55:20;;;;;;;5.95;3.75;;;25.50;66.90;;;;;;5001690;28;20113;-60
2023/06/16 01:57:47;;;;;;;4.85;3.53;;;25.60;67.10;;;;;;5011527;28;20042;-64
2023/06/16 02:00:20;;;;;;;5.60;3.47;;;25.60;67.20;;;;;;5008430;28;20042;-62
2023/06/16 02:02:49;;;;;;;;;;;25.40;67.20;;;;;;5012356;28;20046;-61
2023/06/16 02:05:16;;;;;;;6.28;3.45;;;25.40;67.60;;;;;;4993178;28;20016;-59
2023/06/16 02:07:42;;;;;;;6.05;3.85;;;25.20;70.20;;;;;;5012267;28;20054;-61
2023/06/16 02:10:08;;;;;;;5.72;3.67;;;25.40;67.00;;;;;;5010705;28;20048;-60
2023/06/16 02:12:34;;;;;;;5.57;3.78;;;25.40;67.00;;;;;;5011282;28;20523;-61
2023/06/16 02:15:00;;;;;;;6.28;3.35;;;25.30;66.90;;;;;;4992526;28;20046;-61
2023/06/16 02:17:26;;;;;;;5.13;3.03;;;25.50;67.20;;;;;;4992948;28;20050;-61
2023/06/16 02:19:55;;;;;;;5.22;3.30;;;25.20;67.00;;;;;;5012330;28;20117;-63
2023/06/16 02:22:21;;;;;;;5.05;3.30;;;25.50;67.20;;;;;;5008673;28;20196;-61
2023/06/16 02:24:47;;;;;;;6.38;3.72;;;25.60;67.30;;;;;;4999804;28;20129;-60
2023/06/16 02:27:16;;;;;;;5.60;3.75;;;25.00;66.90;;;;;;5009967;28;20038;-60
2023/06/16 02:29:42;;;;;;;5.32;4.00;;;25.20;66.70;;;;;;5010010;28;20150;-61
2023/06/16 02:32:08;;;;;;;5.22;3.58;;;25.30;67.00;;;;;;4996154;28;20129;-62
2023/06/16 02:34:34;;;;;;;5.35;3.50;;;25.40;67.00;;;;;;5010954;28;20115;-60
2023/06/16 02:37:00;;;;;;;5.70;3.30;;;25.50;67.30;;;;;;5013413;28;20450;-61
2023/06/16 02:39:26;;;;;;;6.55;3.45;;;25.30;67.20;;;;;;5006222;28;20703;-63
2023/06/16 02:41:52;;;;;;;6.65;3.55;;;25.40;67.10;;;;;;4993632;28;20062;-62
2023/06/16 02:44:17;;;;;;;5.32;3.60;;;25.10;66.90;;;;;;4993097;28;20449;-61
2023/06/16 02:46:43;;;;;;;6.07;3.70;;;25.40;70.50;;;;;;4993548;28;20074;-60
2023/06/16 02:49:09;;;;;;;6.47;3.92;;;25.20;66.90;;;;;;5002825;28;20042;-63
2023/06/16 02:51:35;;;;;;;6.05;3.65;;;25.30;67.10;;;;;;5013413;28;20038;-61
2023/06/16 02:54:02;;;;;;;5.18;3.47;;;24.90;66.90;;;;;;5001884;28;20412;-60
2023/06/16 02:56:28;;;;;;;5.68;3.47;;;25.10;67.20;;;;;;5007323;28;20046;-60
2023/06/16 02:58:55;;;;;;;6.78;3.38;;;25.10;67.20;;;;;;5000249;28;20054;-62
2023/06/16 03:01:25;;;;;;;5.00;3.40;;;25.20;67.30;;;;;;4994218;28;20053;-60
2023/06/16 03:03:52;;;;;;;6.03;3.83;;;25.20;67.40;;;;;;4993344;28;20450;-61
2023/06/16 03:06:19;;;;;;;5.72;3.85;;;25.50;67.50;;;;;;5009239;28;20061;-66
2023/06/16 03:08:45;;;;;;;5.18;3.00;;;25.40;67.50;;;;;;4993423;28;20038;-60
2023/06/16 03:11:11;;;;;;;6.85;3.70;;;25.30;67.30;;;;;;5007441;28;20530;-64
2023/06/16 03:13:37;;;;;;;4.93;3.63;;;25.10;67.30;;;;;;5006946;28;20121;-63
2023/06/16 03:16:03;;;;;;;6.03;3.30;;;25.20;67.30;;;;;;4997306;28;20046;-63
2023/06/16 03:18:29;;;;;;;7.00;3.70;;;25.20;70.60;;;;;;4993234;28;20050;-65
2023/06/16 03:20:55;;;;;;;5.32;3.17;;;25.40;67.40;;;;;;4996717;28;20103;-60
2023/06/16 03:23:20;;;;;;;5.90;3.65;;;25.30;67.40;;;;;;4997169;28;20117;-61
2023/06/16 03:25:46;;;;;;;4.90;3.40;;;25.20;67.20;;;;;;4999203;28;20400;-63
2023/06/16 03:28:13;;;;;;;6.78;3.60;;;25.30;70.90;;;;;;4996712;28;20124;-64
2023/06/16 03:30:40;;;;;;;5.72;4.00;;;25.50;67.50;;;;;;5003591;28;20046;-63
2023/06/16 03:33:06;;;;;;;6.13;3.70;;;25.10;66.70;;;;;;5013357;28;20053;-71
2023/06/16 03:35:32;;;;;;;6.82;3.35;;;25.30;67.10;;;;;;5007996;28;20073;-69
2023/06/16 03:37:58;;;;;;;6.72;3.63;;;25.20;67.30;;;;;;5014371;28;20508;-70
2023/06/16 03:40:23;;;;;;;5.07;3.50;;;25.10;67.10;;;;;;5012545;28;21604;-66
2023/06/16 03:42:49;;;;;;;5.88;3.45;;;25.10;67.20;;;;;;5012742;28;20491;-69
2023/06/16 03:45:15;;;;;;;5.32;3.60;;;25.00;67.00;;;;;;5013814;28;20411;-67
2023/06/16 03:47:41;;;;;;;6.18;3.30;;;25.10;66.80;;;;;;5006645;28;20548;-71
2023/06/16 03:50:07;;;;;;;6.60;3.70;;;25.10;67.20;;;;;;5008391;28;20076;-70
2023/06/16 03:52:33;;;;;;;4.85;3.33;;;25.20;66.80;;;;;;5008346;28;20117;-68
2023/06/16 03:55:00;;;;;;;6.35;3.92;;;25.20;67.10;;;;;;5014267;28;20776;-65
2023/06/16 03:57:25;;;;;;;5.82;3.95;;;25.30;67.30;;;;;;5009918;28;20056;-64
2023/06/16 03:59:51;;;;;;;7.28;4.10;;;25.30;67.10;;;;;;5015491;28;20049;-70
2023/06/16 04:02:17;;;;;;;6.20;4.20;;;25.40;67.20;;;;;;5014741;28;20097;-67
2023/06/16 04:04:45;;;;;;;5.97;3.80;;;25.50;67.20;;;;;;5012364;28;20042;-69
2023/06/16 04:07:11;;;;;;;6.82;3.80;;;25.10;67.10;;;;;;5010219;28;20428;-61
2023/06/16 04:09:38;;;;;;;5.70;3.88;;;25.40;67.20;;;;;;5014401;28;20056;-69
2023/06/16 04:12:04;;;;;;;8.63;3.90;;;25.30;67.10;;;;;;5014993;28;20100;-68
2023/06/16 04:14:30;;;;;;;7.60;4.18;;;25.40;66.80;;;;;;5014129;28;20108;-71
2023/06/16 04:16:56;;;;;;;6.07;4.05;;;25.30;67.00;;;;;;4999915;28;20439;-60
2023/06/16 04:19:22;;;;;;;5.00;3.60;;;25.60;67.10;;;;;;5014322;28;20061;-62
2023/06/16 04:21:47;;;;;;;6.30;4.43;;;25.50;67.20;;;;;;5011388;28;20077;-69
2023/06/16 04:24:14;;;;;;;6.15;4.60;;;25.40;70.50;;;;;;5012340;28;20057;-66
2023/06/16 04:26:43;;;;;;;6.05;4.28;;;25.50;67.10;;;;;;5013426;28;20481;-63
2023/06/16 04:29:14;;;;;;;6.15;3.78;;;25.40;67.20;;;;;;5011664;28;20053;-70
2023/06/16 04:31:42;;;;;;;8.15;4.05;;;25.50;67.90;;;;;;5009169;28;20042;-62
2023/06/16 04:34:12;;;;;;;5.60;3.67;;;25.40;67.30;;;;;;5012838;28;20050;-69
2023/06/16 04:36:41;;;;;;;6.82;4.30;;;25.60;66.00;;;;;;5013515;28;20033;-68
2023/06/16 04:39:08;;;;;;;6.63;4.47;;;25.70;67.50;;;;;;5011017;28;20396;-70
2023/06/16 04:41:35;;;;;;;6.38;4.00;;;25.50;67.20;;;;;;5010430;28;20472;-67
2023/06/16 04:44:03;;;;;;;9.15;4.78;;;25.40;67.20;;;;;;5012230;28;20137;-62
2023/06/16 04:46:29;;;;;;;6.18;4.50;;;25.60;67.50;;;;;;5012931;28;20049;-70
2023/06/16 04:48:55;;;;;;;5.43;4.07;;;25.70;67.50;;;;;;5010783;28;20077;-68
2023/06/16 04:51:21;;;;;;;8.77;4.65;;;25.50;67.20;;;;;;5012600;28;20061;-66
2023/06/16 04:53:47;;;;;;;6.18;4.35;;;25.50;70.50;;;;;;5011299;28;20764;-69
2023/06/16 04:56:13;;;;;;;8.15;4.05;;;25.50;67.10;;;;;;4997720;28;20042;-61
2023/06/16 04:58:39;;;;;;;6.60;3.72;;;26.00;71.00;;;;;;5000444;28;20061;-70
2023/06/16 05:01:05;;;;;;;5.32;3.95;;;26.00;67.20;;;;;;5008397;28;20045;-66
2023/06/16 05:03:31;;;;;;;5.20;3.90;;;26.10;67.10;;;;;;5012508;28;20037;-66
2023/06/16 05:05:57;;;;;;;5.20;3.83;;;26.20;66.20;;;;;;5003287;28;20460;-61
2023/06/16 05:08:22;;;;;;;5.47;3.67;;;26.10;66.30;;;;;;5006804;28;20046;-66
2023/06/16 05:10:48;;;;;;;4.90;3.22;;;26.30;66.10;;;;;;5010862;28;20479;-63
2023/06/16 05:13:14;;;;;;;5.15;3.45;;;26.70;66.00;;;;;;5002389;28;20480;-66
2023/06/16 05:15:40;;;;;;;7.53;4.15;;;26.90;65.90;;;;;;5012730;28;20048;-66
2023/06/16 05:18:05;;;;;;;5.50;3.88;;;27.10;65.90;;;;;;5012000;28;20048;-63
2023/06/16 05:20:32;;;;;;;5.53;3.60;;;27.30;65.80;;;;;;5007390;28;20520;-69
2023/06/16 05:22:58;;;;;;;57.92;8.82;;;27.10;65.60;;;;;;5012849;28;20042;-68
2023/06/16 05:25:24;;;;;;;45.60;9.40;;;27.40;65.60;;;;;;5013077;28;20456;-71
2023/06/16 05:27:50;;;;;;;26.75;11.48;;;27.20;65.90;;;;;;5009770;28;20080;-70
2023/06/16 05:30:16;;;;;;;26.60;11.65;;;27.20;66.10;;;;;;5010103;28;20068;-69
2023/06/16 05:32:41;;;;;;;15.18;12.20;;;27.30;66.70;;;;;;5010190;28;20050;-68
2023/06/16 05:35:08;;;;;;;14.52;11.00;;;27.20;67.10;;;;;;5012621;28;20177;-65
2023/06/16 05:37:33;;;;;;;12.75;10.63;;;27.30;67.40;;;;;;5013132;28;20046;-70
2023/06/16 05:39:59;;;;;;;11.80;9.85;;;27.30;68.00;;;;;;5005921;28;20049;-61
2023/06/16 05:42:25;;;;;;;15.60;10.23;;;27.10;68.20;;;;;;5004056;28;20088;-61
2023/06/16 05:44:51;;;;;;;13.10;10.38;;;27.10;68.40;;;;;;5002096;28;20149;-63
2023/06/16 05:47:17;;;;;;;14.13;9.88;;;27.00;68.00;;;;;;4994186;28;20125;-64
2023/06/16 05:49:43;;;;;;;13.40;10.15;;;27.00;68.60;;;;;;4994136;28;20049;-60
2023/06/16 05:52:09;;;;;;;12.90;10.38;;;27.40;69.00;;;;;;4997148;28;20046;-62
2023/06/16 05:54:37;;;;;;;12.38;10.38;;;27.30;68.90;;;;;;4995919;28;20046;-70
2023/06/16 05:57:04;;;;;;;12.27;10.60;;;27.20;68.10;;;;;;5013213;28;20052;-69
2023/06/16 05:59:30;;;;;;;13.15;10.65;;;27.10;68.50;;;;;;5007542;28;20046;-70
2023/06/16 06:01:56;;;;;;;13.77;10.02;;;27.20;69.10;;;;;;5008827;28;20095;-70
2023/06/16 06:04:31;;;;;;;13.45;10.50;;;27.40;69.10;;;;;;5010219;28;20415;-70
2023/06/16 06:06:57;;;;;;;11.95;10.18;;;27.30;69.70;;;;;;4998513;28;20038;-68
2023/06/16 06:09:23;;;;;;;12.15;9.27;;;27.50;69.20;;;;;;5010273;28;20399;-63
2023/06/16 06:11:49;;;;;;;12.27;8.98;;;27.50;69.10;;;;;;5011193;28;20045;-66
2023/06/16 06:14:15;;;;;;;11.88;9.57;;;27.80;69.30;;;;;;5009252;28;20484;-64
2023/06/16 06:16:41;;;;;;;11.07;9.20;;;27.70;69.30;;;;;;5007260;28;20081;-67
2023/06/16 06:19:07;;;;;;;10.07;9.00;;;27.70;69.70;;;;;;5011067;28;20514;-70
2023/06/16 06:21:36;;;;;;;14.80;10.43;;;27.60;69.00;;;;;;5010723;28;20046;-61
2023/06/16 06:24:02;;;;;;;11.57;9.35;;;27.90;68.70;;;;;;5010113;28;20050;-60
2023/06/16 06:26:28;;;;;;;12.55;9.98;;;27.50;69.50;;;;;;5011500;28;20046;-63
2023/06/16 06:28:54;;;;;;;10.27;8.45;;;27.90;69.70;;;;;;5007877;28;20049;-60
2023/06/16 06:31:20;;;;;;;10.75;8.95;;;27.90;69.40;;;;;;5003534;28;20756;-72
2023/06/16 06:33:46;;;;;;;12.93;9.85;;;26.20;68.00;;;;;;5004217;28;20049;-70
2023/06/16 06:36:20;;;;;;;12.40;9.80;;;27.90;69.40;;;;;;5006677;28;20085;-70
2023/06/16 06:38:47;;;;;;;11.32;8.80;;;27.80;69.30;;;;;;5009219;28;20153;-70
2023/06/16 06:41:13;;;;;;;10.77;7.28;;;28.00;69.20;;;;;;5009485;28;20049;-70
2023/06/16 06:43:39;;;;;;;11.38;9.40;;;27.70;68.60;;;;;;5006453;28;20046;-65
2023/06/16 06:46:05;;;;;;;13.70;8.23;;;27.90;68.30;;;;;;5009065;28;20042;-64
2023/06/16 06:48:31;;;;;;;9.85;7.95;;;27.90;68.50;;;;;;5011922;28;20502;-64
2023/06/16 06:50:56;;;;;;;10.10;7.55;;;28.10;68.70;;;;;;5011975;28;20057;-70
2023/06/16 06:53:22;;;;;;;8.15;6.68;;;28.10;68.40;;;;;;5009583;28;20518;-70
2023/06/16 06:55:48;;;;;;;7.57;6.03;;;28.00;68.10;;;;;;5004761;28;20060;-60
2023/06/16 06:58:14;;;;;;;9.95;6.22;;;28.10;68.20;;;;;;5014428;28;20049;-69
2023/06/16 07:00:39;;;;;;;8.32;6.43;;;28.00;67.80;;;;;;5014623;28;20053;-70
2023/06/16 07:03:06;;;;;;;7.78;5.75;;;28.30;68.00;;;;;;5014308;28;20117;-62
2023/06/16 07:05:33;;;;;;;8.55;5.90;;;28.30;68.00;;;;;;5011932;28;20071;-61
2023/06/16 07:08:01;;;;;;;7.32;5.40;;;28.30;67.90;;;;;;5013188;28;20080;-66
2023/06/16 07:10:29;;;;;;;8.13;5.95;;;28.50;68.10;;;;;;5007736;28;20460;-65
2023/06/16 07:12:56;;;;;;;7.15;5.35;;;28.20;67.60;;;;;;5012512;28;20052;-61
2023/06/16 07:15:21;;;;;;;7.47;5.65;;;28.40;67.60;;;;;;5015661;28;20141;-61
2023/06/16 07:17:47;;;;;;;9.77;5.82;;;28.40;67.50;;;;;;5014387;28;20113;-69
2023/06/16 07:20:13;;;;;;;9.02;5.40;;;28.30;67.40;;;;;;5011578;28;20415;-70
2023/06/16 07:22:39;;;;;;;7.10;5.47;;;28.60;67.60;;;;;;5014810;28;20459;-70
2023/06/16 07:25:06;;;;;;;8.65;5.28;;;28.50;67.20;;;;;;5012245;28;20049;-70
2023/06/16 07:27:31;;;;;;;6.47;4.80;;;28.50;67.00;;;;;;5012537;28;20117;-70
2023/06/16 07:29:57;;;;;;;10.75;5.90;;;28.70;67.30;;;;;;4996057;28;20137;-69
2023/06/16 07:32:23;;;;;;;7.97;4.72;;;28.50;67.10;;;;;;5014529;28;20053;-70
2023/06/16 07:34:49;;;;;;;7.40;5.20;;;28.70;67.30;;;;;;5010638;28;20053;-69
2023/06/16 07:37:15;;;;;;;8.10;5.10;;;29.00;67.30;;;;;;5006931;28;20116;-71
2023/06/16 07:39:41;;;;;;;6.80;4.88;;;29.00;66.80;;;;;;5012329;28;20050;-70
2023/06/16 07:42:07;;;;;;;8.27;5.00;;;28.80;67.00;;;;;;5013221;28;20125;-70
2023/06/16 07:44:33;;;;;;;7.90;4.60;;;28.80;66.60;;;;;;5012781;28;20149;-62
2023/06/16 07:47:00;;;;;;;8.70;5.55;;;28.80;66.40;;;;;;5011787;28;20050;-63
2023/06/16 07:49:27;;;;;;;8.98;4.90;;;28.80;66.50;;;;;;5013249;28;20052;-70
2023/06/16 07:51:53;;;;;;;9.75;5.00;;;28.90;66.40;;;;;;5010709;28;20042;-70
2023/06/16 07:54:19;;;;;;;10.32;5.30;;;29.00;66.10;;;;;;5014109;28;20053;-70
2023/06/16 07:56:45;;;;;;;8.85;4.93;;;28.90;66.10;;;;;;5013213;28;20034;-69
2023/06/16 07:59:11;;;;;;;9.70;5.70;;;29.00;65.90;;;;;;5013524;28;20049;-70
2023/06/16 08:01:37;;;;;;;9.68;5.13;;;29.20;65.70;;;;;;5010525;28;20357;-69
2023/06/16 08:04:03;;;;;;;8.85;5.30;;;29.20;65.70;;;;;;5014487;28;20459;-69
2023/06/16 08:06:28;;;;;;;11.68;5.82;;;29.30;65.50;;;;;;5012869;28;20117;-70
2023/06/16 08:08:56;;;;;;;8.70;4.85;;;29.10;65.30;;;;;;5014264;28;20046;-69
2023/06/16 08:11:22;;;;;;;9.02;5.60;;;29.20;65.30;;;;;;5010165;28;20053;-69
2023/06/16 08:13:47;;;;;;;8.55;5.43;;;29.20;65.30;;;;;;5012241;28;20052;-69
2023/06/16 08:16:13;;;;;;;9.65;5.13;;;28.90;64.90;;;;;;5013629;28;20044;-69
2023/06/16 08:18:39;;;;;;;10.85;6.07;;;29.20;65.10;;;;;;5012467;28;20049;-71
2023/06/16 08:21:06;;;;;;;9.77;5.93;;;29.30;65.30;;;;;;5005369;28;20128;-72
2023/06/16 08:23:32;;;;;;;9.48;6.40;;;29.20;65.30;;;;;;5012567;28;20064;-68
2023/06/16 08:25:59;;;;;;;9.45;6.22;;;29.20;65.30;;;;;;5011948;28;20049;-70
2023/06/16 08:28:25;;;;;;;10.73;6.47;;;29.20;65.50;;;;;;5009718;28;20053;-69
2023/06/16 08:30:51;;;;;;;7.80;6.07;;;29.00;65.40;;;;;;5008695;28;20045;-67
2023/06/16 08:33:17;;;;;;;9.40;6.82;;;29.20;65.60;;;;;;5004870;28;20183;-70
2023/06/16 08:35:43;;;;;;;10.68;6.15;;;28.90;65.40;;;;;;5006516;28;20049;-71
2023/06/16 08:38:09;;;;;;;9.57;6.35;;;29.10;65.60;;;;;;4998101;28;20046;-70
2023/06/16 08:40:35;;;;;;;13.43;6.68;;;29.00;65.40;;;;;;5005327;28;20049;-60
2023/06/16 08:43:01;;;;;;;9.02;6.50;;;29.00;65.40;;;;;;5010849;28;20096;-66
2023/06/16 08:45:27;;;;;;;8.05;5.70;;;29.30;65.90;;;;;;5012517;28;20107;-71
2023/06/16 08:47:53;;;;;;;11.43;5.85;;;29.10;65.20;;;;;;5009968;28;20450;-70
2023/06/16 08:50:22;;;;;;;8.38;5.63;;;29.00;65.30;;;;;;5009367;28;20038;-71
2023/06/16 08:52:48;;;;;;;8.60;5.65;;;29.10;64.40;;;;;;5009338;28;20081;-67
2023/06/16 08:55:14;;;;;;;20.48;6.10;;;28.90;65.20;;;;;;5004993;28;20076;-70
2023/06/16 08:57:47;;;;;;;10.27;6.05;;;29.00;65.30;;;;;;5012172;28;20050;-71
2023/06/16 09:00:14;;;;;;;10.02;5.20;;;29.00;65.50;;;;;;5010226;28;20052;-71
2023/06/16 09:02:41;;;;;;;9.07;5.40;;;29.00;64.70;;;;;;5013255;28;20080;-71
2023/06/16 09:05:07;;;;;;;8.38;5.15;;;29.00;64.70;;;;;;5010198;28;20050;-69
2023/06/16 09:07:35;;;;;;;9.07;5.05;;;28.90;64.40;;;;;;5012486;28;20093;-71
2023/06/16 09:10:00;;;;;;;8.40;4.78;;;29.10;64.30;;;;;;5011341;28;20045;-72
2023/06/16 09:12:27;;;;;;;7.55;4.60;;;28.90;63.90;;;;;;5013694;28;20038;-70
2023/06/16 09:14:53;;;;;;;7.63;4.65;;;29.00;64.00;;;;;;5010336;28;20311;-68
2023/06/16 09:17:27;;;;;;;7.43;4.80;;;28.80;63.40;;;;;;5011858;28;20050;-72
2023/06/16 09:19:53;;;;;;;8.65;5.00;;;29.00;63.80;;;;;;5009769;28;20054;-68
2023/06/16 09:22:23;;;;;;;8.02;4.80;;;28.70;63.10;;;;;;5005280;28;20515;-71
2023/06/16 09:25:00;;;;;;;7.85;4.40;;;29.00;63.40;;;;;;5013497;28;20384;-71
2023/06/16 09:27:50;;;;;;;8.63;4.90;;;28.80;61.80;;;;;;5006101;28;20057;-71
2023/06/16 09:30:18;;;;;;;9.90;4.53;;;28.90;61.50;;;;;;5000752;28;20111;-73
2023/06/16 09:32:53;;;;;;;7.88;4.45;;;28.80;62.90;;;;;;5003603;28;20042;-67
2023/06/16 09:35:27;;;;;;;7.07;4.50;;;28.80;61.30;;;;;;5003025;28;20054;-70
2023/06/16 09:37:55;;;;;;;6.65;4.40;;;28.90;61.10;;;;;;5010064;28;20038;-71
2023/06/16 09:40:31;;;;;;;6.40;4.10;;;28.80;62.40;;;;;;5011723;28;20420;-68
2023/06/16 09:42:58;;;;;;;8.55;4.40;;;28.70;60.90;;;;;;5008239;28;20393;-72
2023/06/16 09:45:30;;;;;;;6.63;3.97;;;28.60;62.20;;;;;;5010045;28;20101;-72
2023/06/16 09:47:56;;;;;;;5.50;3.92;;;28.60;62.20;;;;;;5011180;28;20046;-69
2023/06/16 09:50:25;;;;;;;7.80;4.10;;;28.70;61.70;;;;;;5010290;28;20046;-69
2023/06/16 09:52:54;;;;;;;6.93;3.95;;;28.50;61.60;;;;;;5012322;28;20052;-70
2023/06/16 09:55:20;;;;;;;8.80;4.20;;;28.80;62.10;;;;;;5012417;28;20492;-70
2023/06/16 09:57:46;;;;;;;6.35;4.32;;;28.50;61.50;;;;;;5010404;28;20038;-67
2023/06/16 10:00:15;;;;;;;5.60;3.90;;;28.80;61.90;;;;;;5011971;28;20439;-69
2023/06/16 10:02:51;;;;;;;7.47;4.30;;;28.50;61.40;;;;;;4990829;28;20057;-68
2023/06/16 10:05:18;;;;;;;9.15;4.00;;;28.90;60.70;;;;;;5009844;28;20048;-64
2023/06/16 10:07:48;;;;;;;7.13;4.43;;;28.60;61.90;;;;;;5011012;28;20391;-71
2023/06/16 10:10:15;;;;;;;7.85;4.28;;;28.70;62.00;;;;;;5012764;28;20586;-72
2023/06/16 10:12:48;;;;;;;7.50;4.90;;;28.70;61.80;;;;;;4992076;28;20185;-72
2023/06/16 10:15:26;;;;;;;11.45;6.85;;;28.60;62.10;;;;;;5010282;28;20054;-70
2023/06/16 10:17:54;;;;;;;10.98;6.82;;;28.70;62.00;;;;;;5010725;28;20069;-72
2023/06/16 10:20:23;;;;;;;14.70;7.20;;;28.50;61.70;;;;;;4992986;28;20134;-73
2023/06/16 10:22:49;;;;;;;13.15;7.40;;;28.70;62.10;;;;;;5005609;28;20393;-72
2023/06/16 10:25:15;;;;;;;15.95;6.03;;;28.60;61.50;;;;;;4990198;28;20057;-67
2023/06/16 10:27:41;;;;;;;11.38;6.20;;;28.50;61.50;;;;;;5010198;28;20488;-71
2023/06/16 10:30:09;;;;;;;9.73;5.18;;;28.50;61.50;;;;;;5012860;28;20133;-69
2023/06/16 10:32:37;;;;;;;13.85;5.18;;;28.30;61.40;;;;;;5006818;28;20046;-72
2023/06/16 10:35:03;;;;;;;12.52;5.45;;;28.20;61.50;;;;;;5007052;28;20046;-71
2023/06/16 10:37:29;;;;;;;9.07;4.65;;;28.30;61.20;;;;;;5020311;28;20048;-72
2023/06/16 10:40:03;;;;;;;7.72;4.90;;;28.40;61.00;;;;;;5011316;28;20050;-72
2023/06/16 10:42:33;;;;;;;7.47;4.55;;;28.40;62.10;;;;;;5009055;28;20165;-74
2023/06/16 10:45:26;;;;;;;8.07;4.05;;;28.40;62.00;;;;;;5009708;28;20062;-67
2023/06/16 10:48:03;;;;;;;13.18;4.43;;;28.50;60.60;;;;;;5006697;28;20424;-71
2023/06/16 10:50:41;;;;;;;9.63;4.63;;;28.70;60.70;;;;;;5001570;28;20085;-67
2023/06/16 10:53:14;;;;;;;6.78;3.88;;;28.40;62.10;;;;;;4993252;28;20054;-68
2023/06/16 10:55:45;;;;;;;9.15;4.22;;;28.70;60.50;;;;;;5005152;28;20108;-69
2023/06/16 10:58:16;;;;;;;6.95;3.42;;;28.40;61.60;;;;;;5009380;28;20057;-71
2023/06/16 11:00:43;;;;;;;7.38;3.33;;;28.50;60.50;;;;;;5009348;28;20042;-67
2023/06/16 11:03:09;;;;;;;5.88;3.25;;;28.50;61.40;;;;;;5003498;28;20081;-68
2023/06/16 11:05:41;;;;;;;5.85;3.40;;;28.60;61.80;;;;;;5006531;28;20072;-71
2023/06/16 11:08:08;;;;;;;;;;;28.40;61.40;;;;;;5011908;28;20511;-70
2023/06/16 11:11:02;;;;;;;6.85;3.40;;;28.30;61.10;;;;;;4997027;28;20438;-64
2023/06/16 11:13:33;;;;;;;6.75;3.10;;;28.70;59.90;;;;;;4989744;28;20057;-70
2023/06/16 11:16:00;;;;;;;5.20;3.20;;;29.00;61.40;;;;;;5012005;28;20052;-70
2023/06/16 11:18:26;;;;;;;5.70;3.00;;;28.60;60.60;;;;;;5010048;28;20046;-61
2023/06/16 11:21:00;;;;;;;6.88;2.97;;;28.60;60.60;;;;;;5009233;28;20100;-67
2023/06/16 11:23:26;;;;;;;6.72;2.97;;;28.60;60.70;;;;;;5010369;28;20050;-70
2023/06/16 11:25:52;;;;;;;5.95;2.90;;;28.80;60.40;;;;;;5007367;28;20058;-67
2023/06/16 11:28:21;;;;;;;7.25;3.20;;;28.90;60.80;;;;;;4991296;28;20038;-70
2023/06/16 11:30:48;;;;;;;5.57;3.42;;;28.80;60.80;;;;;;5003630;28;20060;-69
2023/06/16 11:33:16;;;;;;;6.90;3.03;;;28.90;60.90;;;;;;5011983;28;20133;-72
2023/06/16 11:35:43;;;;;;;5.25;3.15;;;28.90;61.20;;;;;;5006214;28;20042;-70
2023/06/16 11:38:08;;;;;;;7.38;3.40;;;28.90;61.10;;;;;;5010148;28;20565;-70
2023/06/16 11:40:35;;;;;;;4.82;3.03;;;28.90;61.10;;;;;;5010257;28;20054;-71
2023/06/16 11:43:04;;;;;;;5.28;3.20;;;28.90;60.90;;;;;;5009128;28;20049;-68
2023/06/16 11:45:35;;;;;;;5.38;3.30;;;28.80;61.20;;;;;;5009420;28;20054;-68
2023/06/16 11:48:02;;;;;;;8.02;3.15;;;28.90;61.20;;;;;;5013471;28;20056;-63
2023/06/16 11:50:28;;;;;;;10.88;3.45;;;28.50;61.00;;;;;;5010733;28;20046;-70
2023/06/16 11:52:54;;;;;;;5.72;3.20;;;28.80;61.20;;;;;;5015152;28;20054;-66
2023/06/16 11:55:20;;;;;;;6.22;3.20;;;29.00;61.10;;;;;;5013730;28;20046;-66
2023/06/16 11:57:45;;;;;;;5.75;3.42;;;28.70;61.10;;;;;;5012519;28;20049;-68
2023/06/16 12:00:12;;;;;;;5.05;3.00;;;29.00;61.10;;;;;;5011655;28;20402;-67
2023/06/16 12:02:38;;;;;;;5.93;3.35;;;28.80;60.80;;;;;;5013612;28;20092;-61
2023/06/16 12:05:23;;;;;;;6.88;3.25;;;28.70;61.40;;;;;;5012628;28;20407;-69
2023/06/16 12:07:49;;;;;;;6.78;3.28;;;28.80;59.80;;;;;;4997554;28;20050;-70
2023/06/16 12:10:16;;;;;;;5.03;2.95;;;28.60;60.90;;;;;;5015096;28;20057;-70
2023/06/16 12:12:42;;;;;;;5.70;3.40;;;29.10;61.10;;;;;;5012389;28;20455;-68
2023/06/16 12:15:09;;;;;;;6.50;3.10;;;28.70;60.70;;;;;;5010179;28;20049;-71
2023/06/16 12:17:35;;;;;;;6.97;3.72;;;28.90;60.80;;;;;;5004521;28;20057;-69
2023/06/16 12:20:04;;;;;;;6.13;3.25;;;29.00;61.20;;;;;;4995183;28;20050;-71
2023/06/16 12:22:35;;;;;;;9.30;3.50;;;28.80;61.30;;;;;;5010473;28;20041;-68
2023/06/16 12:25:01;;;;;;;8.70;3.40;;;28.70;61.50;;;;;;5023702;28;20108;-70
2023/06/16 12:27:26;;;;;;;7.15;3.25;;;28.60;60.80;;;;;;5013843;28;20034;-68
2023/06/16 12:29:56;;;;;;;6.68;3.58;;;28.70;61.00;;;;;;5014755;28;20439;-71
2023/06/16 12:32:32;;;;;;;7.47;3.25;;;28.80;61.90;;;;;;5011862;28;20042;-71
2023/06/16 12:34:58;;;;;;;7.88;3.38;;;28.80;62.20;;;;;;5003694;28;20054;-72
2023/06/16 12:37:27;;;;;;;6.53;3.20;;;28.50;61.40;;;;;;5003021;28;20045;-68
2023/06/16 12:39:57;;;;;;;8.32;3.60;;;28.60;62.20;;;;;;5006448;28;20141;-68
2023/06/16 12:42:27;;;;;;;5.60;3.15;;;29.00;62.70;;;;;;5001802;28;20042;-70
2023/06/16 12:44:53;;;;;;;6.30;2.85;;;28.90;62.50;;;;;;4994095;28;20066;-66
2023/06/16 12:47:23;;;;;;;7.68;3.20;;;28.80;62.10;;;;;;4994863;28;20082;-70